Time;durP1;ratioP1;P1;durP2;ratioP2;P2;SDS_P1;SDS_P2;PMS_P1;PMS_P2;Temp;Humidity;BMP_temperature;BMP_pressure;BME280_temperature;BME280_humidity;BME280_pressure;Samples;Min_cycle;Max_cycle;Signal;HPM_P1;HPM_P2
2022/03/17 00:00:24;;;;;;;15.40;8.88;;;10.80;58.30;;;;;;2304065;55;21020;-68
2022/03/17 00:02:54;;;;;;;14.70;8.75;;;10.80;58.40;;;;;;2291614;55;20966;-67
2022/03/17 00:05:24;;;;;;;17.20;9.95;;;10.80;58.40;;;;;;2293685;55;20988;-68
2022/03/17 00:08:45;;;;;;;16.70;10.18;;;10.80;58.50;;;;;;2278185;55;21008;-67
2022/03/17 00:15:48;;;;;;;12.13;6.90;;;10.80;58.40;;;;;;2346998;55;20965;-68
2022/03/17 00:18:24;;;;;;;;;;;;;;;;;;;;;
2022/03/17 00:21:39;;;;;;;;;;;;;;;;;;;;;
2022/03/17 00:24:22;;;;;;;;;;;;;;;;;;;;;
2022/03/17 00:28:23;;;;;;;16.02;8.88;;;10.80;58.30;;;;;;2292474;55;20998;-67
2022/03/17 00:30:57;;;;;;;13.45;7.90;;;10.80;58.40;;;;;;2292560;55;21020;-68
2022/03/17 00:33:43;;;;;;;15.07;8.73;;;10.80;58.40;;;;;;2311946;55;21063;-68
2022/03/17 00:36:10;;;;;;;13.43;8.50;;;10.80;58.60;;;;;;2315754;55;21041;-68
2022/03/17 00:39:09;;;;;;;15.43;8.88;;;10.80;58.50;;;;;;2357703;55;21008;-68
2022/03/17 00:41:40;;;;;;;16.60;9.23;;;10.80;58.80;;;;;;2274792;55;21029;-67
2022/03/17 00:44:07;;;;;;;14.68;9.13;;;10.80;58.70;;;;;;2271625;55;20980;-67
2022/03/17 00:46:37;;;;;;;19.08;11.82;;;10.80;58.90;;;;;;2293781;55;21720;-67
2022/03/17 00:49:13;;;;;;;20.83;12.68;;;10.80;59.00;;;;;;2288413;55;20945;-67
2022/03/17 00:52:30;;;;;;;19.95;11.30;;;10.80;59.10;;;;;;2267010;56;21011;-67
2022/03/17 00:58:08;;;;;;;15.57;9.32;;;10.80;59.40;;;;;;2266457;56;20976;-68
2022/03/17 01:00:45;;;;;;;16.92;10.48;;;10.90;58.90;;;;;;2294099;55;20974;-68
2022/03/17 01:10:31;;;;;;;16.10;9.00;;;10.90;59.30;;;;;;2285108;56;21061;-68
2022/03/17 01:13:03;;;;;;;16.85;10.35;;;10.90;59.30;;;;;;2289156;55;21370;-68
2022/03/17 01:15:34;;;;;;;16.12;9.80;;;10.90;59.10;;;;;;2288483;55;20976;-68
2022/03/17 01:18:48;;;;;;;15.60;9.50;;;10.90;59.10;;;;;;2294916;55;21034;-67
2022/03/17 01:24:56;;;;;;;16.25;9.32;;;10.90;59.30;;;;;;2288557;55;21021;-67
2022/03/17 01:27:23;;;;;;;16.42;9.95;;;10.90;58.90;;;;;;2289576;55;21080;-67
2022/03/17 01:30:54;;;;;;;15.90;8.98;;;10.90;59.00;;;;;;2289777;55;21000;-68
2022/03/17 01:36:12;;;;;;;15.52;9.25;;;10.90;59.00;;;;;;2284153;55;20952;-67
2022/03/17 01:38:42;;;;;;;17.37;8.50;;;10.90;59.10;;;;;;2294306;55;21038;-67
2022/03/17 01:41:51;;;;;;;15.23;8.75;;;10.90;59.70;;;;;;2304067;55;21049;-67
2022/03/17 01:44:21;;;;;;;15.82;8.52;;;11.00;59.60;;;;;;2272921;55;21527;-67
2022/03/17 01:50:02;;;;;;;17.83;10.50;;;11.00;59.30;;;;;;2296166;55;21021;-68
2022/03/17 01:52:42;;;;;;;13.88;8.40;;;11.00;59.20;;;;;;2342433;55;20997;-68
2022/03/17 01:55:10;;;;;;;14.52;8.90;;;11.00;59.40;;;;;;2290057;56;21075;-67
2022/03/17 01:57:39;;;;;;;14.73;8.98;;;11.00;59.20;;;;;;2306826;55;20988;-67
2022/03/17 02:00:14;;;;;;;15.15;9.82;;;11.00;59.20;;;;;;2297435;54;21033;-68
2022/03/17 02:02:56;;;;;;;14.57;9.43;;;11.10;59.30;;;;;;2402488;55;20961;-67
2022/03/17 02:05:33;;;;;;;12.98;8.30;;;11.00;59.20;;;;;;2401962;55;21006;-68
2022/03/17 02:08:02;;;;;;;16.40;9.70;;;11.10;59.10;;;;;;2272106;55;20956;-67
2022/03/17 02:17:30;;;;;;;16.15;9.35;;;11.10;59.20;;;;;;2438064;55;20993;-68
2022/03/17 02:20:08;;;;;;;;;;;;;;;;;;;;;
2022/03/17 02:25:33;;;;;;;16.77;10.20;;;11.10;59.10;;;;;;2293332;55;21037;-67
2022/03/17 02:28:02;;;;;;;12.52;6.95;;;11.00;59.10;;;;;;2292447;55;21061;-67
2022/03/17 02:30:34;;;;;;;13.75;8.10;;;11.00;58.90;;;;;;2293861;55;21005;-67
2022/03/17 02:33:50;;;;;;;;;;;;;;;;;;;;;
2022/03/17 02:36:34;;;;;;;16.52;9.75;;;11.10;59.30;;;;;;2278162;55;21028;-68
2022/03/17 02:39:13;;;;;;;17.62;9.85;;;11.10;59.10;;;;;;2257426;56;21500;-67
2022/03/17 02:41:43;;;;;;;14.43;8.88;;;11.10;59.10;;;;;;2262647;56;21015;-68
2022/03/17 02:44:10;;;;;;;14.23;8.88;;;11.10;59.00;;;;;;2265046;56;20984;-68
2022/03/17 02:46:55;;;;;;;14.35;8.85;;;11.10;59.00;;;;;;2318646;55;21851;-68
2022/03/17 02:53:16;;;;;;;;;;;;;;;;;;;;;
2022/03/17 02:55:44;;;;;;;11.50;6.62;;;11.00;58.90;;;;;;2345994;54;20954;-68
2022/03/17 02:58:11;;;;;;;12.80;6.95;;;11.00;59.00;;;;;;2288410;55;21425;-68
2022/03/17 03:00:58;;;;;;;11.10;6.93;;;11.00;59.00;;;;;;2269139;56;21073;-68
2022/03/17 03:04:13;;;;;;;12.30;6.57;;;11.00;59.00;;;;;;2377047;54;20960;-68
2022/03/17 03:07:17;;;;;;;10.73;6.65;;;11.00;59.40;;;;;;2301038;55;22178;-67
2022/03/17 03:09:47;;;;;;;11.20;6.50;;;11.00;59.10;;;;;;2297465;55;21096;-68
2022/03/17 03:12:14;;;;;;;10.50;6.60;;;11.00;59.00;;;;;;2298735;54;21705;-68
2022/03/17 03:18:40;;;;;;;12.05;6.62;;;11.10;59.30;;;;;;2300397;54;21072;-68
2022/03/17 03:22:53;;;;;;;12.00;7.32;;;11.10;59.20;;;;;;2293542;54;21092;-68
2022/03/17 03:25:49;;;;;;;11.27;6.25;;;11.10;59.50;;;;;;2238182;55;20969;-68
2022/03/17 03:28:16;;;;;;;10.75;6.30;;;11.10;59.00;;;;;;2289011;55;20945;-68
2022/03/17 03:30:59;;;;;;;10.63;6.25;;;11.10;59.00;;;;;;2289243;55;21005;-67
2022/03/17 03:34:03;;;;;;;11.85;6.82;;;11.10;59.10;;;;;;2290534;55;21077;-67
2022/03/17 03:45:50;;;;;;;8.15;4.70;;;11.00;59.10;;;;;;2292405;55;20965;-67
2022/03/17 03:55:45;;;;;;;11.43;5.40;;;11.10;59.10;;;;;;2290641;55;20934;-68
2022/03/17 04:07:34;;;;;;;9.45;4.30;;;11.10;59.30;;;;;;2360755;55;20979;-67
2022/03/17 04:10:20;;;;;;;8.38;5.12;;;11.10;59.00;;;;;;2280022;56;20961;-68
2022/03/17 04:13:16;;;;;;;10.43;6.18;;;11.10;59.10;;;;;;2291160;55;20986;-67
2022/03/17 04:15:54;;;;;;;12.50;7.60;;;11.10;59.30;;;;;;2296707;55;21437;-67
2022/03/17 04:18:40;;;;;;;12.85;6.55;;;11.10;59.20;;;;;;2286183;55;21054;-68
2022/03/17 04:21:17;;;;;;;12.13;6.25;;;11.20;59.20;;;;;;2321199;55;21004;-68
2022/03/17 04:23:45;;;;;;;10.25;6.12;;;11.10;59.20;;;;;;2290987;55;20977;-67
2022/03/17 04:26:14;;;;;;;11.80;6.78;;;11.10;59.20;;;;;;2290322;55;20973;-68
2022/03/17 04:28:42;;;;;;;11.00;6.03;;;11.10;59.20;;;;;;2374921;55;20957;-68
2022/03/17 04:31:11;;;;;;;10.27;6.45;;;11.10;59.20;;;;;;2289182;55;21049;-67
2022/03/17 04:42:50;;;;;;;6.87;3.92;;;11.20;59.50;;;;;;2293905;55;21027;-67
2022/03/17 04:45:27;;;;;;;10.68;5.55;;;11.20;58.90;;;;;;2292912;55;20961;-68
2022/03/17 04:48:12;;;;;;;10.60;5.10;;;11.20;59.20;;;;;;2295988;55;21014;-67
2022/03/17 04:50:38;;;;;;;9.80;5.43;;;11.20;59.10;;;;;;2271257;55;21423;-67
2022/03/17 04:56:51;;;;;;;9.30;5.50;;;11.20;59.20;;;;;;2245357;56;21010;-68
2022/03/17 04:59:20;;;;;;;9.90;5.75;;;11.20;59.40;;;;;;2275525;56;20972;-68
2022/03/17 05:02:00;;;;;;;10.95;6.55;;;11.20;59.10;;;;;;2312163;55;21007;-68
2022/03/17 05:04:32;;;;;;;10.65;6.82;;;11.20;59.30;;;;;;2288280;55;21041;-68
2022/03/17 05:07:13;;;;;;;10.52;6.82;;;11.20;59.20;;;;;;2289505;55;21096;-67
2022/03/17 05:09:43;;;;;;;11.60;6.75;;;11.20;59.40;;;;;;2293340;56;21748;-68
2022/03/17 05:12:09;;;;;;;11.63;6.28;;;11.20;59.20;;;;;;2271460;55;21029;-68
2022/03/17 05:14:37;;;;;;;12.57;6.50;;;11.20;59.30;;;;;;2288352;55;21024;-67
2022/03/17 05:17:26;;;;;;;11.00;6.43;;;11.20;59.30;;;;;;2295498;55;21016;-68
2022/03/17 05:19:52;;;;;;;14.07;6.78;;;11.20;59.30;;;;;;2309877;55;21004;-68
2022/03/17 05:22:26;;;;;;;11.70;7.10;;;11.20;59.30;;;;;;2298475;55;20942;-68
2022/03/17 05:31:19;;;;;;;10.85;6.47;;;11.20;59.30;;;;;;2285436;55;20967;-67
2022/03/17 05:34:08;;;;;;;;;;;;;;;;;;;;;
2022/03/17 05:36:47;;;;;;;10.25;5.80;;;11.20;59.10;;;;;;2293335;55;21292;-67
2022/03/17 05:39:17;;;;;;;9.23;5.68;;;11.20;59.20;;;;;;2293041;55;20977;-68
2022/03/17 05:42:30;;;;;;;10.60;6.10;;;11.20;59.30;;;;;;2330500;55;20964;-69
2022/03/17 05:44:57;;;;;;;8.25;5.12;;;11.20;59.40;;;;;;2293607;55;20988;-68
2022/03/17 05:47:27;;;;;;;9.40;5.60;;;11.20;59.40;;;;;;2295418;55;20984;-68
2022/03/17 05:50:04;;;;;;;13.75;6.75;;;11.20;59.50;;;;;;2286359;55;20982;-67
2022/03/17 05:52:50;;;;;;;12.60;6.05;;;11.20;59.80;;;;;;2283282;55;21020;-68
2022/03/17 05:58:10;;;;;;;10.27;6.15;;;11.30;59.60;;;;;;2311826;55;21045;-67
2022/03/17 06:00:37;;;;;;;14.02;6.95;;;11.30;59.50;;;;;;2318280;55;20993;-67
2022/03/17 06:03:05;;;;;;;13.27;8.18;;;11.30;59.50;;;;;;2294305;55;20965;-68
2022/03/17 06:05:49;;;;;;;11.73;7.62;;;11.30;59.50;;;;;;2290497;55;21012;-68
2022/03/17 06:08:21;;;;;;;14.80;7.78;;;11.30;59.50;;;;;;2289665;55;21032;-67
2022/03/17 06:10:48;;;;;;;12.95;7.35;;;11.30;59.60;;;;;;2291290;55;21009;-68
2022/03/17 06:13:21;;;;;;;11.93;7.90;;;11.30;59.60;;;;;;2292772;55;20988;-67
2022/03/17 06:16:19;;;;;;;12.35;7.37;;;11.30;59.70;;;;;;2288415;56;21020;-67
2022/03/17 06:21:58;;;;;;;14.52;8.32;;;11.30;59.70;;;;;;2289591;55;21000;-67
2022/03/17 06:24:38;;;;;;;13.15;8.15;;;11.30;59.90;;;;;;2296521;55;21042;-68
2022/03/17 06:27:05;;;;;;;13.75;8.30;;;11.40;60.00;;;;;;2289456;55;21017;-68
2022/03/17 06:29:36;;;;;;;10.75;7.12;;;11.40;59.80;;;;;;2291949;55;21009;-68
2022/03/17 06:32:09;;;;;;;16.52;9.68;;;11.40;59.80;;;;;;2348126;55;21006;-67
2022/03/17 06:34:50;;;;;;;15.32;9.18;;;11.40;59.80;;;;;;2338457;55;21021;-68
2022/03/17 06:50:13;;;;;;;11.98;7.05;;;11.40;60.10;;;;;;2293637;55;20977;-68
2022/03/17 06:54:14;;;;;;;5.93;3.45;;;11.40;59.90;;;;;;2291126;55;21536;-68
2022/03/17 06:56:41;;;;;;;8.05;4.25;;;11.60;59.60;;;;;;2290240;55;21063;-67
2022/03/17 06:59:08;;;;;;;7.75;4.50;;;11.70;59.90;;;;;;2289496;55;20917;-68
2022/03/17 07:01:39;;;;;;;9.82;5.90;;;11.70;60.00;;;;;;2293920;55;20980;-68
2022/03/17 07:04:09;;;;;;;10.57;6.37;;;11.70;60.20;;;;;;2309082;55;20993;-68
2022/03/17 07:06:39;;;;;;;10.93;6.12;;;11.70;60.30;;;;;;2297581;55;20968;-67
2022/03/17 07:09:09;;;;;;;10.65;6.45;;;11.80;60.40;;;;;;2293114;55;20954;-68
2022/03/17 07:11:56;;;;;;;12.90;7.93;;;11.80;60.40;;;;;;2285550;55;21004;-67
2022/03/17 07:14:35;;;;;;;12.73;7.53;;;11.90;60.50;;;;;;2334901;55;20996;-68
2022/03/17 07:17:02;;;;;;;12.90;8.45;;;11.90;60.60;;;;;;2289222;55;20966;-67
2022/03/17 07:19:35;;;;;;;12.70;7.22;;;12.00;60.60;;;;;;2277903;55;21006;-68
2022/03/17 07:22:03;;;;;;;14.10;6.87;;;12.00;60.60;;;;;;2289826;55;21016;-68
2022/03/17 07:27:36;;;;;;;12.45;7.82;;;12.10;60.80;;;;;;2293608;54;21034;-68
2022/03/17 07:30:45;;;;;;;16.60;8.75;;;12.20;61.10;;;;;;2350441;55;20972;-67
2022/03/17 07:36:53;;;;;;;15.13;9.55;;;12.30;60.60;;;;;;2295601;55;21017;-68
2022/03/17 07:39:35;;;;;;;14.57;9.32;;;12.30;60.60;;;;;;2288494;55;21022;-69
2022/03/17 07:42:04;;;;;;;18.08;11.40;;;12.40;60.60;;;;;;2287013;56;20929;-68
2022/03/17 07:44:37;;;;;;;14.15;9.23;;;12.40;60.50;;;;;;2320686;55;21085;-68
2022/03/17 07:47:12;;;;;;;13.65;8.50;;;12.50;60.70;;;;;;2290606;55;21765;-68
2022/03/17 07:50:06;;;;;;;12.82;8.02;;;12.50;60.60;;;;;;2291648;55;21012;-68
2022/03/17 07:52:35;;;;;;;12.80;7.72;;;12.60;60.80;;;;;;2366919;55;21019;-68
2022/03/17 07:55:14;;;;;;;13.48;7.45;;;12.60;60.60;;;;;;2273181;55;20986;-68
2022/03/17 07:57:41;;;;;;;13.65;8.32;;;12.60;60.60;;;;;;2283148;55;20934;-68
2022/03/17 08:00:13;;;;;;;14.25;8.48;;;12.60;60.60;;;;;;2289070;56;20956;-68
2022/03/17 08:05:38;;;;;;;16.55;8.20;;;12.70;60.80;;;;;;2292399;55;20977;-69
2022/03/17 08:08:24;;;;;;;13.43;7.05;;;12.80;60.90;;;;;;2288784;55;21017;-69
2022/03/17 08:11:24;;;;;;;12.63;7.28;;;12.80;60.30;;;;;;2274185;55;21035;-68
2022/03/17 08:14:33;;;;;;;;;;;;;;;;;;;;;
2022/03/17 08:17:18;;;;;;;10.98;6.68;;;12.90;60.50;;;;;;2288595;55;21837;-68
2022/03/17 08:19:53;;;;;;;11.25;6.95;;;12.90;60.50;;;;;;2294222;55;21040;-68
2022/03/17 08:22:20;;;;;;;17.17;8.65;;;13.00;60.70;;;;;;2295686;55;20936;-68
2022/03/17 08:25:30;;;;;;;13.00;8.10;;;13.00;60.80;;;;;;2307180;55;21078;-68
2022/03/17 08:28:21;;;;;;;10.98;7.10;;;13.10;61.00;;;;;;2272190;56;20952;-68
2022/03/17 09:30:20;;;;;;;15.52;8.95;;;14.70;60.80;;;;;;2215336;56;21098;-66
2022/03/17 09:32:59;;;;;;;14.63;9.13;;;14.80;60.90;;;;;;2228341;56;21019;-67
2022/03/17 09:35:26;;;;;;;17.05;9.90;;;14.80;60.80;;;;;;2228045;56;21075;-67
2022/03/17 09:38:12;;;;;;;13.60;9.07;;;15.00;61.00;;;;;;2204564;57;21631;-67
2022/03/17 09:40:44;;;;;;;14.63;8.93;;;15.00;61.00;;;;;;2209496;56;20965;-67
2022/03/17 09:43:21;;;;;;;15.68;9.27;;;15.10;61.00;;;;;;2241082;57;21017;-67
2022/03/17 09:46:11;;;;;;;13.80;8.70;;;15.30;61.00;;;;;;2240303;56;21138;-67
2022/03/17 09:48:41;;;;;;;16.27;8.77;;;15.30;60.50;;;;;;2240076;56;21039;-67
2022/03/17 09:51:19;;;;;;;13.93;8.35;;;15.40;60.30;;;;;;2230581;56;21099;-66
2022/03/17 10:10:01;;;;;;;14.75;8.98;;;15.50;60.30;;;;;;2216353;56;21476;-66
2022/03/17 10:13:14;;;;;;;9.18;5.70;;;15.90;59.70;;;;;;2239925;56;20984;-67
2022/03/17 10:23:08;;;;;;;13.52;8.73;;;16.00;59.80;;;;;;2351526;56;21029;-67
2022/03/17 10:26:03;;;;;;;14.90;8.70;;;16.10;59.70;;;;;;2271253;56;20999;-67
2022/03/17 11:07:41;;;;;;;15.23;9.48;;;16.20;59.50;;;;;;2242068;57;21131;-67
2022/03/17 11:13:42;;;;;;;15.38;8.75;;;16.60;58.40;;;;;;2298849;56;21049;-67
2022/03/17 11:16:11;;;;;;;17.50;10.32;;;16.60;58.40;;;;;;2202696;57;21068;-66
2022/03/17 11:18:49;;;;;;;16.05;10.45;;;16.60;58.40;;;;;;2240091;56;20982;-66
2022/03/17 11:21:30;;;;;;;15.20;10.73;;;16.60;58.40;;;;;;2245587;57;20965;-66
2022/03/17 11:24:33;;;;;;;15.65;10.25;;;16.60;58.40;;;;;;2254581;56;21097;-66
2022/03/17 11:30:50;;;;;;;19.77;12.98;;;16.60;58.30;;;;;;2191652;57;21613;-67
2022/03/17 11:37:30;;;;;;;22.85;14.20;;;16.70;58.10;;;;;;2256505;57;21081;-66
2022/03/17 11:40:03;;;;;;;23.12;15.00;;;16.70;58.30;;;;;;2246112;56;21033;-66
2022/03/17 11:46:56;;;;;;;21.02;13.07;;;16.70;57.50;;;;;;2245391;57;20969;-66
2022/03/17 11:51:19;;;;;;;23.50;14.30;;;16.70;57.50;;;;;;2213376;57;20992;-67
2022/03/17 11:54:20;;;;;;;22.65;15.43;;;16.60;57.50;;;;;;2233988;57;21090;-66
2022/03/17 11:57:05;;;;;;;23.58;15.80;;;16.60;57.30;;;;;;2206315;57;20996;-67
2022/03/17 11:59:56;;;;;;;22.33;15.80;;;16.60;57.40;;;;;;2189705;56;21072;-67
2022/03/17 12:06:41;;;;;;;19.10;13.40;;;16.50;57.20;;;;;;2252701;56;21001;-65
2022/03/17 12:09:11;;;;;;;23.77;15.02;;;16.50;57.30;;;;;;2212674;56;20970;-67
2022/03/17 12:13:25;;;;;;;25.20;15.68;;;16.50;57.40;;;;;;2258628;56;21067;-67
2022/03/17 12:15:58;;;;;;;20.23;13.75;;;16.50;57.30;;;;;;2233707;57;21103;-66
2022/03/17 12:29:11;;;;;;;20.50;13.95;;;16.40;57.30;;;;;;2197898;57;21028;-67
2022/03/17 12:31:48;;;;;;;16.55;11.20;;;16.40;57.50;;;;;;2221376;56;21465;-66
2022/03/17 12:38:16;;;;;;;18.35;12.52;;;16.60;57.60;;;;;;2250686;58;21092;-66
2022/03/17 12:40:45;;;;;;;25.20;16.02;;;16.60;57.50;;;;;;2195689;57;21016;-67
2022/03/17 12:43:22;;;;;;;22.90;16.15;;;16.60;57.40;;;;;;2225372;57;21022;-65
2022/03/17 12:45:56;;;;;;;26.15;17.05;;;16.60;57.10;;;;;;2241956;56;21107;-66
2022/03/17 12:52:46;;;;;;;;;;;;;;;;;;;;;
2022/03/17 12:55:19;;;;;;;23.85;15.75;;;16.50;56.60;;;;;;2254349;56;20997;-66
2022/03/17 12:58:27;;;;;;;26.35;16.40;;;16.50;56.60;;;;;;2260759;56;21050;-66
2022/03/17 13:04:50;;;;;;;22.27;15.73;;;16.40;56.30;;;;;;2253936;56;20980;-66
2022/03/17 13:17:02;;;;;;;24.00;15.70;;;16.30;56.40;;;;;;2254169;56;20992;-67
2022/03/17 13:19:51;;;;;;;21.65;14.55;;;16.30;56.40;;;;;;2243213;56;21122;-66
2022/03/17 13:23:02;;;;;;;21.10;15.50;;;16.20;56.40;;;;;;2239280;56;21091;-67
2022/03/17 13:39:52;;;;;;;18.95;14.02;;;16.20;56.40;;;;;;2294546;56;21040;-66
2022/03/17 13:42:19;;;;;;;18.25;13.07;;;16.30;56.50;;;;;;2249918;56;20966;-66
2022/03/17 13:45:08;;;;;;;21.83;14.35;;;16.30;56.40;;;;;;2254224;56;21731;-67
2022/03/17 13:48:08;;;;;;;20.85;14.35;;;16.30;56.20;;;;;;2244350;56;22107;-65
2022/03/17 13:50:39;;;;;;;21.10;14.48;;;16.30;56.30;;;;;;2253910;56;21009;-66
2022/03/17 13:59:34;;;;;;;20.45;15.10;;;16.20;56.30;;;;;;2253885;56;20992;-66
2022/03/17 14:28:58;;;;;;;21.80;14.93;;;16.30;56.40;;;;;;2421783;56;21051;-66
2022/03/17 14:31:33;;;;;;;21.48;14.68;;;16.30;56.00;;;;;;2254026;56;21042;-66
2022/03/17 14:33:59;;;;;;;24.70;16.48;;;16.10;55.70;;;;;;2404086;56;20997;-66
2022/03/17 14:36:46;;;;;;;23.95;17.23;;;16.10;55.70;;;;;;2253701;56;21013;-66
2022/03/17 14:39:13;;;;;;;24.05;17.48;;;16.10;55.50;;;;;;2252870;56;21015;-67
2022/03/17 14:46:43;;;;;;;26.62;18.98;;;16.00;55.60;;;;;;2249518;59;21033;-65
2022/03/17 14:49:23;;;;;;;24.90;18.80;;;16.00;55.40;;;;;;2250686;56;20977;-66
2022/03/17 15:04:10;;;;;;;30.52;21.25;;;15.90;54.80;;;;;;2238410;57;21074;-65
2022/03/17 15:10:13;;;;;;;27.92;19.17;;;15.80;54.70;;;;;;2204235;58;20999;-66
2022/03/17 15:12:41;;;;;;;28.35;21.17;;;15.80;54.80;;;;;;2173989;58;20985;-66
2022/03/17 15:15:12;;;;;;;30.45;20.95;;;15.70;54.60;;;;;;2179550;58;21078;-66
2022/03/17 15:17:54;;;;;;;32.17;23.65;;;15.70;54.50;;;;;;2206529;56;21106;-66
2022/03/17 15:25:34;;;;;;;31.77;21.70;;;15.60;54.10;;;;;;2353986;55;21020;-67
2022/03/17 15:34:26;;;;;;;29.42;20.52;;;15.50;54.20;;;;;;2263953;55;21096;-65
2022/03/17 15:36:53;;;;;;;30.60;21.12;;;15.50;54.10;;;;;;2259107;56;21012;-66
2022/03/17 15:39:22;;;;;;;27.52;19.42;;;15.40;53.90;;;;;;2257991;56;21129;-66
2022/03/17 15:41:50;;;;;;;28.25;20.98;;;15.40;53.90;;;;;;2255206;55;21109;-67
2022/03/17 15:47:24;;;;;;;27.37;18.77;;;15.30;53.70;;;;;;2236015;55;21071;-65
2022/03/17 15:50:14;;;;;;;;;;;;;;;;;;;;;
2022/03/17 15:52:43;;;;;;;28.17;21.12;;;15.20;53.70;;;;;;2258280;55;21106;-66
2022/03/17 15:55:10;;;;;;;25.95;18.30;;;15.20;53.70;;;;;;2247582;55;21007;-66
2022/03/17 15:58:23;;;;;;;22.25;16.42;;;15.10;53.70;;;;;;2258974;56;20984;-66
2022/03/17 16:01:28;;;;;;;;;;;;;;;;;;;;;
2022/03/17 16:04:04;;;;;;;24.92;17.92;;;15.00;53.80;;;;;;2257374;55;21523;-67
2022/03/17 16:06:46;;;;;;;23.35;16.50;;;15.00;53.90;;;;;;2339684;55;21310;-67
2022/03/17 16:14:28;;;;;;;24.83;15.68;;;14.90;54.00;;;;;;2258697;56;21064;-66
2022/03/17 16:36:28;;;;;;;31.02;20.58;;;15.00;54.20;;;;;;2310728;55;21486;-66
2022/03/17 16:39:20;;;;;;;21.27;15.10;;;14.90;53.90;;;;;;2261617;56;21834;-65
2022/03/17 16:42:57;;;;;;;21.92;15.30;;;14.40;53.80;;;;;;2227841;56;20948;-66
2022/03/17 16:45:46;;;;;;;21.77;14.60;;;14.30;53.90;;;;;;2256680;55;21062;-65
2022/03/17 17:11:57;;;;;;;12.60;7.87;;;14.00;54.10;;;;;;2218693;57;21043;-66
2022/03/17 17:14:25;;;;;;;12.25;8.43;;;13.60;54.20;;;;;;2210160;56;21022;-65
2022/03/17 17:17:07;;;;;;;15.27;10.25;;;13.60;54.30;;;;;;2228599;56;20994;-66
2022/03/17 17:19:47;;;;;;;16.55;10.57;;;13.50;54.40;;;;;;2259358;56;20965;-66
2022/03/17 17:22:30;;;;;;;17.85;12.30;;;13.50;54.50;;;;;;2266085;56;21862;-66
2022/03/17 17:34:19;;;;;;;14.25;10.05;;;13.30;54.70;;;;;;2320742;55;21054;-66
2022/03/17 17:40:11;;;;;;;15.32;10.32;;;13.30;54.80;;;;;;2260388;55;20979;-66
2022/03/17 18:08:32;;;;;;;13.70;9.32;;;13.20;54.60;;;;;;2306853;55;20987;-65
2022/03/17 18:22:17;;;;;;;12.00;7.95;;;13.20;54.80;;;;;;2302841;55;22240;-66
2022/03/17 18:31:27;;;;;;;13.98;9.48;;;12.70;55.00;;;;;;2332686;54;21060;-67
2022/03/17 18:34:03;;;;;;;15.13;11.02;;;12.70;55.00;;;;;;2325552;54;21844;-67
2022/03/17 18:48:08;;;;;;;15.38;11.07;;;12.70;55.10;;;;;;2318617;54;21105;-65
2022/03/17 18:50:48;;;;;;;;;;;;;;;;;;;;;
2022/03/17 19:05:08;;;;;;;17.70;11.30;;;12.50;55.50;;;;;;2336993;57;21009;-65
2022/03/17 19:15:54;;;;;;;14.93;10.23;;;12.40;55.70;;;;;;2257949;55;20980;-66
2022/03/17 19:29:17;;;;;;;15.10;9.50;;;12.30;55.90;;;;;;2237465;57;21021;-67
2022/03/17 19:57:58;;;;;;;10.30;6.05;;;12.20;55.90;;;;;;2289716;54;21884;-65
2022/03/17 20:00:35;;;;;;;12.00;7.30;;;12.00;55.50;;;;;;2269537;55;21133;-67
2022/03/17 20:03:23;;;;;;;11.65;7.22;;;12.00;55.60;;;;;;2261355;55;21170;-67
2022/03/17 20:06:55;;;;;;;;;;;;;;;;;;;;;
2022/03/17 20:21:02;;;;;;;16.73;9.07;;;11.90;56.00;;;;;;2281844;56;21137;-66
2022/03/17 20:23:39;;;;;;;13.88;7.72;;;11.90;55.60;;;;;;2292686;55;21120;-67
2022/03/17 20:26:10;;;;;;;11.82;6.68;;;11.90;55.80;;;;;;2271974;55;21223;-65
2022/03/17 20:29:04;;;;;;;12.25;7.50;;;11.80;55.90;;;;;;2269550;55;21054;-66
2022/03/17 20:31:50;;;;;;;11.38;7.15;;;11.80;56.20;;;;;;2491134;55;21858;-65
2022/03/17 20:41:47;;;;;;;14.75;8.15;;;11.80;56.30;;;;;;2307221;55;21033;-67
2022/03/17 20:44:32;;;;;;;15.07;8.07;;;11.80;56.20;;;;;;2311603;54;20995;-66
2022/03/17 20:51:00;;;;;;;13.30;7.07;;;11.80;56.60;;;;;;2197912;57;21040;-65
2022/03/17 20:57:04;;;;;;;13.40;7.87;;;11.80;56.60;;;;;;2294376;56;20951;-65
2022/03/17 21:03:02;;;;;;;14.43;8.32;;;11.70;56.50;;;;;;2280031;56;21060;-66
2022/03/17 21:05:38;;;;;;;13.90;8.05;;;11.70;56.50;;;;;;2268479;55;21290;-67
2022/03/17 21:12:08;;;;;;;13.62;7.65;;;11.70;56.80;;;;;;2308704;54;20941;-67
2022/03/17 21:14:55;;;;;;;15.75;8.50;;;11.70;56.70;;;;;;2291773;55;20989;-66
2022/03/17 21:17:35;;;;;;;16.90;8.82;;;11.60;57.00;;;;;;2292457;55;20982;-66
2022/03/17 21:21:50;;;;;;;14.38;8.90;;;11.60;56.80;;;;;;2293902;55;21063;-65
2022/03/17 21:24:31;;;;;;;13.10;7.82;;;11.60;56.90;;;;;;2289636;56;21066;-66
2022/03/17 21:30:21;;;;;;;15.43;9.00;;;11.60;56.90;;;;;;2289863;54;21596;-66
2022/03/17 21:32:54;;;;;;;15.43;9.18;;;11.60;56.90;;;;;;2295764;55;20989;-66
2022/03/17 21:35:26;;;;;;;15.18;8.98;;;11.50;56.80;;;;;;2399068;54;20957;-66
2022/03/17 21:38:01;;;;;;;17.83;8.98;;;11.50;56.90;;;;;;2346942;54;20915;-65
2022/03/17 21:40:45;;;;;;;16.08;9.70;;;11.50;57.00;;;;;;2294082;55;21831;-65
2022/03/17 21:43:19;;;;;;;16.20;9.57;;;11.50;57.00;;;;;;2300782;56;20977;-66
2022/03/17 21:49:32;;;;;;;16.08;9.02;;;11.50;57.50;;;;;;2294323;56;21058;-66
2022/03/17 21:52:20;;;;;;;15.32;8.70;;;11.50;57.30;;;;;;2350816;55;21006;-67
2022/03/17 21:55:01;;;;;;;18.15;11.05;;;11.50;57.30;;;;;;2276363;55;21049;-66
2022/03/17 21:57:39;;;;;;;16.08;9.70;;;11.50;57.40;;;;;;2282059;55;20967;-66
2022/03/17 22:03:26;;;;;;;15.73;9.70;;;11.50;57.30;;;;;;2295538;57;20965;-66
2022/03/17 22:05:54;;;;;;;14.70;9.35;;;11.50;57.50;;;;;;2309996;56;21928;-65
2022/03/17 22:09:06;;;;;;;16.83;9.98;;;11.40;57.10;;;;;;2315883;55;20997;-66
2022/03/17 22:11:39;;;;;;;15.60;9.95;;;11.50;57.40;;;;;;2260008;56;21052;-66
2022/03/17 22:14:15;;;;;;;17.52;10.85;;;11.40;57.50;;;;;;2300312;54;21050;-65
2022/03/17 22:17:23;;;;;;;17.02;10.40;;;11.40;57.50;;;;;;2279816;55;21034;-65
2022/03/17 22:20:37;;;;;;;14.23;9.07;;;11.40;57.70;;;;;;2313348;54;20967;-66
2022/03/17 22:23:29;;;;;;;14.32;9.40;;;11.40;57.90;;;;;;2365155;55;20989;-65
2022/03/17 22:26:44;;;;;;;16.15;10.18;;;11.40;57.90;;;;;;2299794;55;21070;-65
2022/03/17 22:29:18;;;;;;;14.18;9.65;;;11.40;57.60;;;;;;2334766;54;20960;-66
2022/03/17 22:31:49;;;;;;;15.07;8.93;;;11.40;57.70;;;;;;2293152;55;20941;-66
2022/03/17 22:38:09;;;;;;;14.38;9.02;;;11.40;58.30;;;;;;2436298;54;20961;-66
2022/03/17 22:43:43;;;;;;;12.52;8.25;;;11.40;58.00;;;;;;2293789;56;20987;-66
2022/03/17 22:46:19;;;;;;;14.27;8.93;;;11.40;58.00;;;;;;2311905;55;21791;-65
2022/03/17 22:48:51;;;;;;;14.50;9.27;;;11.40;58.20;;;;;;2310068;56;20989;-66
2022/03/17 22:51:21;;;;;;;13.82;8.55;;;11.40;58.10;;;;;;2301304;55;21352;-65
2022/03/17 22:57:24;;;;;;;13.27;8.23;;;11.40;58.10;;;;;;2308423;55;20995;-65
2022/03/17 23:01:58;;;;;;;;;;;;;;;;;;;;;
2022/03/17 23:04:34;;;;;;;12.02;7.32;;;11.50;58.60;;;;;;2317553;56;21077;-66
2022/03/17 23:07:16;;;;;;;10.50;6.75;;;11.50;58.10;;;;;;2297566;56;21034;-65
2022/03/17 23:09:43;;;;;;;12.13;7.45;;;11.50;58.20;;;;;;2307233;55;21450;-66
2022/03/17 23:12:20;;;;;;;;;;;;;;;;;;;;;
2022/03/17 23:14:50;;;;;;;12.60;7.97;;;11.50;58.20;;;;;;2355581;54;21056;-66
2022/03/17 23:17:18;;;;;;;12.48;8.55;;;11.50;58.20;;;;;;2304008;55;21016;-66
2022/03/17 23:19:48;;;;;;;11.68;7.62;;;11.50;58.20;;;;;;2305894;55;20993;-65
2022/03/17 23:22:42;;;;;;;12.40;8.40;;;11.50;58.20;;;;;;2280301;55;20996;-65
2022/03/17 23:46:56;;;;;;;10.93;7.72;;;11.50;58.20;;;;;;2305171;55;21036;-66
